createdAt,value
2023-12-10T00:01:51.695Z,3.38
2023-12-10T00:04:18.523Z,2.45
2023-12-10T00:06:45.330Z,1.95
2023-12-10T00:09:13.062Z,1.73
2023-12-10T00:11:39.834Z,1.63
2023-12-10T00:14:07.172Z,2.25
2023-12-10T00:16:33.989Z,1.23
2023-12-10T00:19:00.882Z,2.20
2023-12-10T00:21:27.915Z,3.08
2023-12-10T00:23:54.735Z,2.40
2023-12-10T00:26:21.495Z,0.85
2023-12-10T00:28:48.246Z,1.17
2023-12-10T00:31:15.079Z,2.60
2023-12-10T00:33:41.944Z,2.30
2023-12-10T00:36:09.742Z,1.45
2023-12-10T00:38:36.809Z,1.13
2023-12-10T00:41:03.777Z,1.50
2023-12-10T00:43:30.497Z,2.10
2023-12-10T00:45:58.932Z,2.40
2023-12-10T00:48:25.946Z,3.95
2023-12-10T00:50:52.736Z,4.32
2023-12-10T00:53:19.554Z,3.47
2023-12-10T00:55:46.520Z,1.75
2023-12-10T00:58:15.115Z,3.63
2023-12-10T01:00:42.502Z,2.60
2023-12-10T01:03:09.627Z,3.70
2023-12-10T01:05:36.541Z,3.10
2023-12-10T01:08:04.457Z,3.63
2023-12-10T01:10:31.569Z,2.83
2023-12-10T01:12:58.659Z,3.38
2023-12-10T01:15:31.405Z,2.65
2023-12-10T01:18:04.763Z,1.38
2023-12-10T01:20:32.940Z,2.67
2023-12-10T01:23:00.605Z,3.42
2023-12-10T01:25:27.638Z,3.47
2023-12-10T01:27:55.142Z,3.90
2023-12-10T01:30:24.799Z,4.72
2023-12-10T01:32:53.336Z,3.83
2023-12-10T01:35:20.422Z,7.10
2023-12-10T01:37:47.280Z,2.85
2023-12-10T01:40:14.396Z,3.88
2023-12-10T01:42:47.979Z,3.10
2023-12-10T01:45:15.358Z,3.40
2023-12-10T01:47:47.815Z,2.78
2023-12-10T01:50:16.746Z,3.20
2023-12-10T01:52:45.777Z,5.22
2023-12-10T01:55:13.559Z,3.40
2023-12-10T01:57:40.719Z,3.20
2023-12-10T02:00:08.719Z,4.78
2023-12-10T02:02:37.219Z,5.90
2023-12-10T02:05:09.053Z,4.00
2023-12-10T02:07:36.444Z,5.93
2023-12-10T02:10:07.633Z,5.40
2023-12-10T02:12:36.137Z,4.10
2023-12-10T02:15:35.768Z,4.43
2023-12-10T02:18:02.651Z,4.15
2023-12-10T02:20:29.429Z,3.25
2023-12-10T02:23:06.822Z,4.72
2023-12-10T02:25:35.473Z,5.55
2023-12-10T02:28:04.083Z,6.35
2023-12-10T02:30:31.724Z,4.18
2023-12-10T02:32:59.088Z,6.85
2023-12-10T02:35:27.462Z,6.00
2023-12-10T02:37:54.486Z,4.80
2023-12-10T02:40:21.656Z,6.63
2023-12-10T02:43:38.811Z,4.82
2023-12-10T02:46:42.528Z,6.90
2023-12-10T02:49:23.089Z,9.27
2023-12-10T02:52:12.720Z,8.82
2023-12-10T02:54:42.683Z,3.83
2023-12-10T02:57:09.874Z,5.30
2023-12-10T02:59:36.579Z,6.18
2023-12-10T03:02:03.406Z,6.47
2023-12-10T03:04:30.131Z,12.45
2023-12-10T03:06:56.865Z,7.05
2023-12-10T03:09:23.578Z,6.20
2023-12-10T03:11:50.360Z,6.75
2023-12-10T03:14:17.233Z,7.43
2023-12-10T03:16:43.982Z,7.30
2023-12-10T03:19:11.180Z,10.40
2023-12-10T03:21:38.099Z,8.85
2023-12-10T03:24:05.274Z,10.13
2023-12-10T03:26:32.048Z,15.73
2023-12-10T03:28:58.784Z,5.13
2023-12-10T03:31:25.515Z,10.15
2023-12-10T03:33:52.506Z,8.90
2023-12-10T03:36:19.737Z,8.90
2023-12-10T03:38:48.215Z,12.85
2023-12-10T03:41:15.124Z,11.07
2023-12-10T03:43:41.852Z,10.27
2023-12-10T03:46:08.539Z,11.07
2023-12-10T03:48:35.380Z,12.45
2023-12-10T03:51:02.303Z,18.98
2023-12-10T03:53:29.046Z,19.40
2023-12-10T03:55:55.761Z,14.77
2023-12-10T03:58:22.506Z,9.98
2023-12-10T04:00:49.388Z,17.20
2023-12-10T04:03:16.449Z,16.60
2023-12-10T04:05:43.248Z,10.20
2023-12-10T04:08:10.167Z,14.50
2023-12-10T04:10:36.938Z,12.02
2023-12-10T04:13:04.459Z,14.02
2023-12-10T04:15:31.227Z,11.93
2023-12-10T04:17:57.982Z,14.23
2023-12-10T04:20:24.752Z,16.95
2023-12-10T04:22:51.496Z,13.93
2023-12-10T04:25:18.223Z,18.25
2023-12-10T04:27:44.972Z,20.88
2023-12-10T04:30:12.494Z,17.13
2023-12-10T04:32:39.319Z,15.35
2023-12-10T04:35:06.212Z,14.07
2023-12-10T04:37:32.982Z,16.05
2023-12-10T04:39:59.774Z,14.98
2023-12-10T04:42:26.766Z,15.75
2023-12-10T04:44:53.770Z,11.10
2023-12-10T04:47:20.576Z,15.43
2023-12-10T04:49:47.478Z,13.20
2023-12-10T04:52:14.537Z,10.38
2023-12-10T04:54:41.829Z,13.00
2023-12-10T04:57:10.143Z,9.32
2023-12-10T04:59:37.191Z,9.80
2023-12-10T05:02:04.576Z,11.13
2023-12-10T05:04:31.424Z,12.50
2023-12-10T05:06:59.028Z,12.25
2023-12-10T05:09:26.637Z,14.95
2023-12-10T05:11:53.367Z,12.65
2023-12-10T05:14:20.094Z,20.10
2023-12-10T05:16:46.844Z,16.63
2023-12-10T05:19:14.055Z,15.93
2023-12-10T05:21:41.028Z,9.65
2023-12-10T05:24:07.893Z,11.45
2023-12-10T05:26:44.324Z,11.98
2023-12-10T05:29:11.453Z,10.45
2023-12-10T05:32:45.793Z,13.68
2023-12-10T05:35:14.741Z,13.32
2023-12-10T05:37:42.928Z,14.90
2023-12-10T05:40:10.357Z,9.98
2023-12-10T05:42:37.450Z,14.55
2023-12-10T05:45:13.305Z,10.30
2023-12-10T05:47:48.208Z,10.07
2023-12-10T05:50:19.679Z,9.55
2023-12-10T05:53:05.069Z,12.15
2023-12-10T05:55:32.447Z,15.10
2023-12-10T05:57:59.743Z,14.48
2023-12-10T06:00:26.721Z,14.30
2023-12-10T06:02:53.887Z,17.70
2023-12-10T06:05:21.111Z,13.57
2023-12-10T06:07:48.326Z,11.52
2023-12-10T06:10:15.219Z,12.15
2023-12-10T06:12:42.627Z,14.52
2023-12-10T06:15:09.787Z,15.30
2023-12-10T06:17:36.616Z,11.57
2023-12-10T06:20:05.949Z,11.48
2023-12-10T06:22:32.707Z,9.70
2023-12-10T06:25:00.111Z,14.40
2023-12-10T06:27:26.914Z,10.90
2023-12-10T06:29:53.683Z,17.88
2023-12-10T06:32:20.398Z,10.45
2023-12-10T06:34:47.235Z,14.07
2023-12-10T06:37:14.051Z,19.63
2023-12-10T06:39:40.807Z,14.50
2023-12-10T06:42:07.845Z,11.27
2023-12-10T06:44:36.924Z,14.75
2023-12-10T06:47:04.185Z,8.93
2023-12-10T06:49:31.011Z,10.43
2023-12-10T06:51:57.923Z,13.98
2023-12-10T06:54:24.716Z,14.60
2023-12-10T06:56:51.465Z,13.60
2023-12-10T06:59:18.178Z,17.40
2023-12-10T07:01:44.985Z,13.73
2023-12-10T07:04:11.929Z,11.05
2023-12-10T07:06:38.848Z,11.32
2023-12-10T07:09:08.038Z,14.13
2023-12-10T07:11:35.016Z,14.10
2023-12-10T07:14:01.764Z,10.32
2023-12-10T07:16:29.250Z,11.23
2023-12-10T07:18:56.221Z,13.48
2023-12-10T07:21:23.161Z,13.55
2023-12-10T07:23:49.951Z,12.45
2023-12-10T07:26:23.517Z,10.75
2023-12-10T07:28:50.975Z,13.80
2023-12-10T07:31:18.180Z,10.70
2023-12-10T07:33:45.310Z,9.70
2023-12-10T07:36:12.638Z,8.63
2023-12-10T07:38:40.001Z,10.80
2023-12-10T07:41:06.964Z,13.63
2023-12-10T07:43:33.750Z,12.43
2023-12-10T07:46:00.652Z,11.68
2023-12-10T07:48:29.350Z,12.10
2023-12-10T07:50:56.245Z,8.93
2023-12-10T07:53:23.512Z,11.07
2023-12-10T07:55:50.292Z,8.93
2023-12-10T07:58:17.064Z,18.25
2023-12-10T08:00:48.350Z,10.90
2023-12-10T08:03:15.735Z,11.93
2023-12-10T08:05:42.652Z,8.70
2023-12-10T08:08:09.530Z,14.50
2023-12-10T08:10:36.332Z,8.10
2023-12-10T08:13:03.702Z,9.02
2023-12-10T08:15:30.947Z,8.00
2023-12-10T08:17:57.821Z,11.55
2023-12-10T08:20:24.637Z,13.85
2023-12-10T08:22:51.384Z,8.85
2023-12-10T08:25:18.184Z,13.90
2023-12-10T08:27:45.129Z,13.50
2023-12-10T08:30:12.436Z,11.32
2023-12-10T08:32:39.857Z,7.97
2023-12-10T08:35:07.313Z,11.82
2023-12-10T08:37:34.168Z,11.13
2023-12-10T08:40:04.712Z,8.15
2023-12-10T08:42:32.097Z,10.27
2023-12-10T08:44:59.709Z,9.38
2023-12-10T08:47:26.537Z,11.73
2023-12-10T08:49:54.460Z,13.05
2023-12-10T08:52:22.304Z,13.63
2023-12-10T08:54:49.078Z,12.30
2023-12-10T08:57:16.124Z,12.95
2023-12-10T08:59:42.846Z,9.93
2023-12-10T09:02:09.604Z,13.48
2023-12-10T09:04:36.341Z,13.38
2023-12-10T09:07:03.208Z,16.80
2023-12-10T09:09:30.119Z,17.20
2023-12-10T09:11:56.927Z,15.55
2023-12-10T09:14:23.629Z,18.10
2023-12-10T09:16:50.429Z,11.60
2023-12-10T09:19:18.335Z,12.25
2023-12-10T09:21:46.428Z,14.52
2023-12-10T09:24:13.394Z,18.33
2023-12-10T09:26:40.624Z,11.80
2023-12-10T09:29:07.438Z,10.77
2023-12-10T09:31:34.485Z,11.07
2023-12-10T09:34:01.390Z,9.43
2023-12-10T09:36:28.225Z,10.48
2023-12-10T09:38:55.060Z,13.27
2023-12-10T09:41:21.833Z,6.22
2023-12-10T09:43:48.614Z,9.45
2023-12-10T09:46:15.893Z,7.72
2023-12-10T09:48:44.195Z,10.63
2023-12-10T09:51:11.000Z,10.50
2023-12-10T09:53:37.817Z,10.93
2023-12-10T09:56:04.966Z,7.13
2023-12-10T09:58:31.860Z,9.30
2023-12-10T10:00:58.673Z,8.32
2023-12-10T10:03:26.791Z,9.55
2023-12-10T10:06:00.868Z,10.38
2023-12-10T10:08:27.783Z,6.70
2023-12-10T10:10:54.554Z,8.90
2023-12-10T10:13:21.368Z,9.32
2023-12-10T10:15:48.225Z,9.55
2023-12-10T10:18:16.254Z,13.27
2023-12-10T10:20:43.593Z,9.32
2023-12-10T10:23:10.427Z,9.45
2023-12-10T10:25:37.249Z,7.05
2023-12-10T10:28:09.299Z,7.63
2023-12-10T10:30:36.216Z,11.40
2023-12-10T10:33:03.252Z,11.98
2023-12-10T10:35:30.067Z,12.10
2023-12-10T10:37:57.698Z,12.27
2023-12-10T10:40:24.739Z,10.32
2023-12-10T10:42:51.516Z,9.18
2023-12-10T10:45:18.302Z,9.27
2023-12-10T10:47:45.458Z,8.13
2023-12-10T10:50:22.065Z,8.57
2023-12-10T10:52:54.267Z,8.80
2023-12-10T10:55:21.626Z,10.48
2023-12-10T10:57:48.573Z,9.88
2023-12-10T11:00:24.740Z,8.80
2023-12-10T11:02:55.505Z,9.05
2023-12-10T11:05:34.773Z,9.93
2023-12-10T11:08:05.981Z,6.38
2023-12-10T11:10:34.100Z,7.15
2023-12-10T11:13:01.352Z,7.65
2023-12-10T11:15:31.973Z,6.20
2023-12-10T11:18:03.838Z,5.25
2023-12-10T11:20:39.228Z,9.95
2023-12-10T11:23:17.686Z,9.00
2023-12-10T11:25:46.105Z,6.72
2023-12-10T11:28:15.751Z,8.45
2023-12-10T11:30:43.731Z,8.82
2023-12-10T11:33:12.361Z,8.02
2023-12-10T11:35:39.571Z,5.45
2023-12-10T11:38:06.358Z,4.88
2023-12-10T11:40:34.044Z,7.18
2023-12-10T11:43:05.822Z,8.02
2023-12-10T11:45:33.701Z,9.38
2023-12-10T11:48:06.807Z,7.05
2023-12-10T11:50:35.153Z,7.15
2023-12-10T11:53:02.070Z,5.32
2023-12-10T11:55:30.699Z,7.68
2023-12-10T11:57:58.906Z,7.75
2023-12-10T12:00:35.937Z,5.90
2023-12-10T12:03:08.136Z,5.93
2023-12-10T12:05:34.989Z,5.32
2023-12-10T12:08:02.164Z,5.68
2023-12-10T12:10:38.404Z,11.80
2023-12-10T12:13:06.377Z,3.55
2023-12-10T12:15:35.060Z,5.68
2023-12-10T12:18:04.163Z,5.97
2023-12-10T12:20:32.124Z,6.53
2023-12-10T12:22:58.844Z,11.75
2023-12-10T12:25:25.678Z,9.07
2023-12-10T12:27:52.515Z,7.72
2023-12-10T12:30:19.780Z,6.75
2023-12-10T12:32:47.099Z,8.90
2023-12-10T12:35:13.952Z,6.55
2023-12-10T12:37:40.697Z,11.23
2023-12-10T12:40:08.032Z,8.27
2023-12-10T12:42:35.320Z,5.43
2023-12-10T12:45:02.438Z,11.40
2023-12-10T12:47:29.550Z,13.70
2023-12-10T12:49:56.748Z,7.57
2023-12-10T12:52:23.729Z,7.85
2023-12-10T12:54:50.524Z,9.60
2023-12-10T12:57:17.938Z,7.32
2023-12-10T12:59:47.915Z,9.93
2023-12-10T13:02:14.692Z,6.18
2023-12-10T13:04:51.773Z,5.78
2023-12-10T13:07:18.670Z,10.23
2023-12-10T13:09:45.532Z,6.70
2023-12-10T13:12:38.488Z,10.68
2023-12-10T13:15:05.778Z,6.80
2023-12-10T13:17:33.045Z,12.82
2023-12-10T13:20:00.103Z,12.20
2023-12-10T13:22:26.957Z,9.82
2023-12-10T13:24:54.329Z,12.13
2023-12-10T13:27:24.282Z,10.75
2023-12-10T13:29:51.416Z,7.95
2023-12-10T13:32:25.416Z,7.90
2023-12-10T13:34:52.435Z,11.57
2023-12-10T13:37:19.260Z,11.45
2023-12-10T13:39:46.043Z,7.97
2023-12-10T13:42:12.845Z,6.03
2023-12-10T13:44:39.667Z,10.27
2023-12-10T13:47:06.746Z,10.18
2023-12-10T13:49:34.163Z,6.50
2023-12-10T13:52:00.960Z,8.25
2023-12-10T13:54:27.825Z,11.07
2023-12-10T13:56:54.633Z,9.55
2023-12-10T13:59:21.398Z,12.90
2023-12-10T14:01:48.273Z,15.90
2023-12-10T14:04:15.231Z,12.05
2023-12-10T14:06:42.065Z,9.63
2023-12-10T14:09:10.561Z,12.40
2023-12-10T14:11:43.476Z,9.98
2023-12-10T14:14:13.341Z,7.38
2023-12-10T14:16:41.672Z,6.35
2023-12-10T14:19:08.647Z,12.35
2023-12-10T14:21:35.504Z,11.88
2023-12-10T14:24:02.295Z,6.63
2023-12-10T14:26:29.143Z,15.45
2023-12-10T14:28:55.912Z,10.50
2023-12-10T14:31:26.320Z,8.88
2023-12-10T14:33:54.140Z,12.00
2023-12-10T14:36:21.352Z,14.30
2023-12-10T14:38:48.117Z,9.25
2023-12-10T14:41:14.863Z,17.02
2023-12-10T14:43:41.652Z,10.50
2023-12-10T14:46:08.915Z,13.55
2023-12-10T14:48:35.988Z,12.07
2023-12-10T14:51:03.731Z,9.85
2023-12-10T14:53:30.577Z,11.25
2023-12-10T14:55:57.650Z,9.20
2023-12-10T14:58:24.446Z,9.48
2023-12-10T15:00:51.279Z,12.30
2023-12-10T15:03:20.152Z,8.90
2023-12-10T15:05:50.106Z,10.95
2023-12-10T15:08:20.392Z,11.80
2023-12-10T15:10:48.066Z,12.93
2023-12-10T15:13:16.298Z,10.20
2023-12-10T15:15:44.081Z,10.10
2023-12-10T15:18:11.842Z,7.00
2023-12-10T15:20:38.748Z,12.20
2023-12-10T15:23:06.385Z,7.35
2023-12-10T15:25:33.490Z,7.88
2023-12-10T15:28:01.411Z,10.50
2023-12-10T15:30:33.669Z,6.05
2023-12-10T15:33:03.337Z,9.43
2023-12-10T15:35:30.818Z,12.77
2023-12-10T15:37:57.779Z,7.80
2023-12-10T15:40:24.671Z,10.43
2023-12-10T15:42:51.535Z,11.73
2023-12-10T15:45:19.039Z,10.27
2023-12-10T15:47:46.102Z,10.68
2023-12-10T15:50:13.414Z,10.85
2023-12-10T15:52:41.393Z,7.22
2023-12-10T15:55:09.574Z,8.13
2023-12-10T15:57:38.592Z,6.30
2023-12-10T16:00:06.462Z,12.18
2023-12-10T16:02:33.609Z,9.20
2023-12-10T16:05:02.338Z,11.13
2023-12-10T16:07:36.904Z,5.13
2023-12-10T16:10:12.480Z,8.98
2023-12-10T16:12:39.405Z,8.68
2023-12-10T16:15:06.824Z,8.90
2023-12-10T16:17:33.765Z,7.13
2023-12-10T16:20:17.994Z,5.65
2023-12-10T16:22:48.157Z,5.90
2023-12-10T16:25:19.099Z,5.55
2023-12-10T16:27:47.570Z,8.90
2023-12-10T16:30:14.474Z,9.30
2023-12-10T16:32:41.222Z,8.02
2023-12-10T16:35:08.762Z,11.90
2023-12-10T16:37:35.921Z,14.38
2023-12-10T16:40:05.939Z,8.90
2023-12-10T16:42:32.885Z,6.78
2023-12-10T16:45:00.040Z,8.07
2023-12-10T16:47:26.856Z,12.02
2023-12-10T16:49:54.344Z,5.93
2023-12-10T16:52:21.115Z,7.22
2023-12-10T16:54:47.880Z,9.93
2023-12-10T16:57:14.614Z,19.85
2023-12-10T16:59:41.455Z,10.77
2023-12-10T17:02:08.733Z,14.20
2023-12-10T17:04:35.704Z,6.45
2023-12-10T17:07:02.972Z,7.78
2023-12-10T17:09:29.966Z,6.65
2023-12-10T17:11:57.465Z,5.80
2023-12-10T17:14:24.243Z,7.65
2023-12-10T17:16:51.402Z,6.65
2023-12-10T17:19:18.400Z,12.13
2023-12-10T17:21:48.337Z,10.85
2023-12-10T17:24:20.843Z,7.43
2023-12-10T17:26:47.653Z,7.97
2023-12-10T17:29:14.359Z,11.32
2023-12-10T17:31:41.275Z,9.45
2023-12-10T17:34:08.173Z,7.03
2023-12-10T17:36:34.993Z,7.03
2023-12-10T17:39:01.789Z,9.68
2023-12-10T17:41:28.582Z,11.20
2023-12-10T17:43:55.335Z,6.47
2023-12-10T17:46:22.155Z,9.57
2023-12-10T17:48:52.288Z,9.45
2023-12-10T17:51:19.411Z,7.53
2023-12-10T17:53:46.396Z,9.23
2023-12-10T17:56:14.973Z,9.85
2023-12-10T17:58:41.891Z,6.93
2023-12-10T18:01:08.882Z,11.18
2023-12-10T18:03:35.722Z,6.70
2023-12-10T18:06:02.580Z,7.90
2023-12-10T18:08:29.299Z,11.90
2023-12-10T18:10:56.080Z,5.80
2023-12-10T18:13:22.814Z,6.03
2023-12-10T18:15:49.551Z,3.42
2023-12-10T18:18:16.431Z,8.65
2023-12-10T18:20:43.624Z,12.07
2023-12-10T18:23:10.412Z,6.68
2023-12-10T18:25:37.508Z,7.78
2023-12-10T18:28:04.805Z,7.53
2023-12-10T18:30:32.303Z,9.50
2023-12-10T18:32:59.517Z,9.52
2023-12-10T18:35:26.572Z,7.53
2023-12-10T18:37:53.372Z,9.98
2023-12-10T18:40:20.224Z,6.40
2023-12-10T18:42:47.577Z,6.35
2023-12-10T18:45:14.779Z,8.98
2023-12-10T18:47:41.585Z,7.97
2023-12-10T18:50:09.814Z,8.68
2023-12-10T18:52:36.649Z,10.80
2023-12-10T18:55:03.563Z,6.22
2023-12-10T18:57:30.686Z,10.27
2023-12-10T18:59:57.674Z,8.88
2023-12-10T19:02:24.995Z,7.13
2023-12-10T19:04:51.926Z,9.82
2023-12-10T19:07:18.709Z,6.93
2023-12-10T19:09:48.895Z,7.38
2023-12-10T19:12:18.887Z,11.02
2023-12-10T19:14:46.907Z,5.28
2023-12-10T19:17:14.028Z,9.07
2023-12-10T19:19:41.181Z,8.15
2023-12-10T19:22:08.512Z,9.07
2023-12-10T19:24:35.411Z,8.55
2023-12-10T19:27:02.307Z,9.07
2023-12-10T19:29:29.938Z,7.10
2023-12-10T19:31:57.930Z,11.00
2023-12-10T19:34:25.363Z,7.63
2023-12-10T19:36:52.288Z,8.38
2023-12-10T19:39:19.710Z,8.40
2023-12-10T19:41:46.534Z,9.75
2023-12-10T19:44:13.358Z,8.60
2023-12-10T19:46:40.102Z,8.60
2023-12-10T19:49:07.295Z,8.73
2023-12-10T19:51:34.124Z,5.75
2023-12-10T19:54:00.967Z,6.05
2023-12-10T19:56:27.701Z,4.03
2023-12-10T19:58:54.492Z,5.93
2023-12-10T20:01:21.430Z,6.65
2023-12-10T20:03:51.412Z,4.88
2023-12-10T20:06:18.281Z,8.35
2023-12-10T20:08:45.008Z,4.75
2023-12-10T20:11:11.811Z,8.85
2023-12-10T20:13:39.296Z,5.68
2023-12-10T20:16:06.541Z,5.50
2023-12-10T20:18:33.437Z,9.95
2023-12-10T20:21:00.342Z,10.02
2023-12-10T20:23:27.136Z,6.97
2023-12-10T20:25:55.720Z,5.85
2023-12-10T20:28:23.556Z,6.05
2023-12-10T20:30:51.082Z,7.97
2023-12-10T20:33:18.221Z,5.60
2023-12-10T20:35:45.041Z,5.93
2023-12-10T20:38:12.071Z,4.93
2023-12-10T20:40:38.798Z,4.57
2023-12-10T20:43:05.912Z,5.18
2023-12-10T20:45:32.834Z,3.50
2023-12-10T20:47:59.953Z,2.72
2023-12-10T20:50:26.935Z,3.83
2023-12-10T20:52:54.627Z,3.28
2023-12-10T20:55:21.407Z,4.15
2023-12-10T20:57:49.014Z,8.63
2023-12-10T21:00:17.970Z,3.92
2023-12-10T21:02:48.066Z,4.85
2023-12-10T21:05:15.157Z,2.45
2023-12-10T21:07:42.193Z,3.95
2023-12-10T21:10:10.717Z,4.25
2023-12-10T21:12:37.722Z,2.05
2023-12-10T21:15:05.178Z,1.90
2023-12-10T21:17:33.591Z,2.72
2023-12-10T21:20:01.477Z,5.22
2023-12-10T21:22:28.337Z,2.45
2023-12-10T21:24:55.171Z,2.83
2023-12-10T21:27:21.959Z,1.95
2023-12-10T21:29:48.790Z,3.72
2023-12-10T21:32:15.556Z,1.42
2023-12-10T21:34:42.445Z,3.78
2023-12-10T21:37:09.389Z,5.88
2023-12-10T21:39:36.572Z,2.58
2023-12-10T21:42:03.747Z,2.50
2023-12-10T21:44:30.564Z,3.20
2023-12-10T21:46:57.277Z,2.25
2023-12-10T21:49:24.766Z,2.42
2023-12-10T21:51:51.668Z,3.95
2023-12-10T21:54:25.921Z,2.05
2023-12-10T21:56:56.375Z,4.07
2023-12-10T21:59:24.119Z,2.72
2023-12-10T22:01:51.094Z,2.30
2023-12-10T22:04:17.930Z,4.10
2023-12-10T22:06:44.859Z,2.78
2023-12-10T22:09:11.640Z,1.67
2023-12-10T22:11:38.475Z,7.47
2023-12-10T22:14:05.340Z,3.88
2023-12-10T22:16:32.110Z,1.55
2023-12-10T22:18:59.077Z,1.80
2023-12-10T22:21:25.947Z,3.88
2023-12-10T22:23:52.721Z,4.00
2023-12-10T22:26:19.659Z,5.82
2023-12-10T22:28:46.403Z,5.95
2023-12-10T22:31:13.583Z,3.58
2023-12-10T22:33:42.301Z,7.25
2023-12-10T22:36:10.976Z,7.78
2023-12-10T22:38:42.926Z,3.85
2023-12-10T22:41:09.955Z,4.50
2023-12-10T22:43:36.988Z,2.80
2023-12-10T22:46:04.152Z,2.65
2023-12-10T22:48:32.094Z,2.65
2023-12-10T22:50:58.991Z,5.80
2023-12-10T22:53:25.784Z,7.47
2023-12-10T22:55:52.649Z,4.15
2023-12-10T22:58:19.564Z,4.80
2023-12-10T23:00:46.705Z,6.90
2023-12-10T23:03:13.732Z,4.30
2023-12-10T23:05:40.591Z,3.30
2023-12-10T23:08:07.461Z,5.05
2023-12-10T23:10:34.214Z,4.95
2023-12-10T23:13:00.999Z,5.28
2023-12-10T23:15:30.717Z,3.28
2023-12-10T23:17:57.565Z,5.60
2023-12-10T23:20:24.818Z,6.00
2023-12-10T23:22:51.548Z,1.92
2023-12-10T23:25:18.403Z,5.32
2023-12-10T23:27:45.284Z,4.22
2023-12-10T23:30:12.712Z,2.92
2023-12-10T23:32:39.655Z,4.90
2023-12-10T23:35:06.662Z,3.33
2023-12-10T23:37:33.379Z,3.80
2023-12-10T23:40:00.385Z,5.97
2023-12-10T23:42:27.305Z,4.95
2023-12-10T23:44:54.091Z,7.03
2023-12-10T23:47:20.836Z,6.60
2023-12-10T23:49:47.635Z,9.70
2023-12-10T23:52:14.525Z,3.25
2023-12-10T23:54:41.500Z,4.90
2023-12-10T23:57:08.780Z,3.50
2023-12-10T23:59:35.863Z,3.65
